Time;durP1;ratioP1;P1;durP2;ratioP2;P2;SDS_P1;SDS_P2;PMS_P1;PMS_P2;Temp;Humidity;BMP_temperature;BMP_pressure;BME280_temperature;BME280_humidity;BME280_pressure;Samples;Min_cycle;Max_cycle;Signal;HPM_P1;HPM_P2
2023/03/11 00:02:10;;;;;;;21.83;12.05;;;-3276.70;99.90;;;;;;5049208;28;20100;-80
2023/03/11 00:04:35;;;;;;;24.70;13.25;;;-3276.70;99.90;;;;;;5051563;28;20043;-81
2023/03/11 00:07:04;;;;;;;19.80;12.20;;;-3276.70;99.90;;;;;;5041016;28;20179;-78
2023/03/11 00:09:29;;;;;;;20.90;13.57;;;-3276.70;99.90;;;;;;5028848;28;20059;-80
2023/03/11 00:11:55;;;;;;;20.65;12.18;;;-3276.70;99.90;;;;;;5041001;28;20084;-78
2023/03/11 00:14:20;;;;;;;24.98;14.23;;;-3276.70;99.90;;;;;;5032132;28;21875;-78
2023/03/11 00:16:46;;;;;;;25.38;14.27;;;-3276.70;99.90;;;;;;5043945;28;20052;-78
2023/03/11 00:19:11;;;;;;;26.80;15.35;;;-3276.70;99.90;;;;;;5030741;28;20029;-79
2023/03/11 00:21:37;;;;;;;28.30;14.90;;;-3276.70;99.90;;;;;;5041323;28;20048;-80
2023/03/11 00:24:02;;;;;;;32.00;17.27;;;-3276.70;99.90;;;;;;5033713;28;20036;-77
2023/03/11 00:26:28;;;;;;;33.90;17.73;;;0.00;99.80;;;;;;5029562;28;20037;-78
2023/03/11 00:28:54;;;;;;;33.13;16.63;;;0.00;99.90;;;;;;5030008;28;20763;-79
2023/03/11 00:31:20;;;;;;;32.78;17.27;;;0.00;99.90;;;;;;5030220;28;22025;-79
2023/03/11 00:33:46;;;;;;;35.95;18.63;;;0.00;99.90;;;;;;5034373;28;20026;-78
2023/03/11 00:36:30;;;;;;;35.72;18.90;;;0.00;99.90;;;;;;5031695;28;20040;-79
2023/03/11 00:38:56;;;;;;;32.28;18.13;;;0.00;99.90;;;;;;5031799;28;20039;-79
2023/03/11 00:41:21;;;;;;;38.70;19.08;;;0.00;99.90;;;;;;5027693;28;20029;-81
2023/03/11 00:43:47;;;;;;;42.20;20.67;;;0.00;99.90;;;;;;5028498;28;20044;-78
2023/03/11 00:46:12;;;;;;;37.58;18.73;;;0.00;99.90;;;;;;5028735;28;20048;-78
2023/03/11 00:48:38;;;;;;;38.95;19.88;;;0.00;99.90;;;;;;5038432;28;20536;-81
2023/03/11 00:51:06;;;;;;;38.40;20.88;;;0.00;99.90;;;;;;5055114;28;20029;-79
2023/03/11 00:53:31;;;;;;;36.75;20.40;;;0.00;99.90;;;;;;5047600;28;20041;-80
2023/03/11 00:55:57;;;;;;;35.33;19.65;;;0.00;99.90;;;;;;5048969;28;20036;-81
2023/03/11 00:58:26;;;;;;;37.53;19.13;;;0.00;99.90;;;;;;5058818;28;20025;-81
2023/03/11 01:00:52;;;;;;;30.42;18.13;;;0.00;99.90;;;;;;5054201;28;20105;-79
2023/03/11 01:03:18;;;;;;;32.25;18.48;;;0.00;99.90;;;;;;5054905;28;20234;-81
2023/03/11 01:05:43;;;;;;;33.15;19.05;;;0.00;99.90;;;;;;5056779;28;20037;-80
2023/03/11 01:08:09;;;;;;;31.00;18.15;;;0.00;99.90;;;;;;5044776;28;20116;-81
2023/03/11 01:10:35;;;;;;;28.73;16.38;;;0.00;99.80;;;;;;5050181;28;20025;-81
2023/03/11 01:13:00;;;;;;;27.63;16.40;;;0.00;99.80;;;;;;5051342;28;20060;-81
2023/03/11 01:15:29;;;;;;;30.52;15.85;;;-3276.70;99.80;;;;;;5064699;28;20375;-80
2023/03/11 01:17:55;;;;;;;27.02;15.68;;;0.00;99.80;;;;;;5051891;28;20104;-81
2023/03/11 01:20:21;;;;;;;23.75;14.75;;;0.00;99.80;;;;;;5051333;28;20549;-79
2023/03/11 01:22:46;;;;;;;24.73;14.95;;;-3276.70;99.70;;;;;;5034916;28;20555;-81
2023/03/11 01:25:15;;;;;;;24.73;14.80;;;0.00;99.70;;;;;;5027368;28;20041;-80
2023/03/11 01:27:40;;;;;;;25.05;14.98;;;0.00;99.70;;;;;;5027821;28;20052;-78
2023/03/11 01:30:07;;;;;;;27.05;15.13;;;-3276.70;99.60;;;;;;5030122;28;20036;-79
2023/03/11 01:32:32;;;;;;;24.77;14.57;;;-3276.70;99.50;;;;;;5029658;28;20083;-78
2023/03/11 01:34:58;;;;;;;24.13;13.90;;;-3276.70;99.50;;;;;;5034102;28;20030;-80
2023/03/11 01:37:23;;;;;;;24.60;14.57;;;-3276.60;99.40;;;;;;5028692;28;20123;-79
2023/03/11 01:39:49;;;;;;;23.52;13.95;;;-3276.60;99.50;;;;;;5030225;28;20035;-79
2023/03/11 01:42:14;;;;;;;23.27;13.85;;;-3276.60;99.50;;;;;;5026527;28;20029;-81
2023/03/11 01:44:40;;;;;;;24.08;14.32;;;-3276.50;99.50;;;;;;5027179;28;20493;-78
2023/03/11 01:47:11;;;;;;;24.90;14.00;;;-3276.50;99.40;;;;;;5029238;28;20510;-79
2023/03/11 01:49:40;;;;;;;25.88;15.02;;;-3276.50;99.40;;;;;;5043371;28;20033;-81
2023/03/11 01:52:07;;;;;;;23.92;13.93;;;-3276.40;99.30;;;;;;5047254;28;20025;-81
2023/03/11 01:54:36;;;;;;;23.50;13.35;;;-3276.40;99.40;;;;;;5050188;28;20025;-81
2023/03/11 01:57:05;;;;;;;23.20;13.60;;;-3276.50;99.40;;;;;;5047298;28;20074;-80
2023/03/11 01:59:46;;;;;;;19.58;13.02;;;-3276.50;99.40;;;;;;5051921;28;20033;-81
2023/03/11 02:02:24;;;;;;;;;;;-3276.50;99.30;;;;;;5060217;28;20043;-80
2023/03/11 02:04:50;;;;;;;22.80;13.93;;;-3276.50;99.20;;;;;;5053588;28;19920;-82
2023/03/11 02:07:16;;;;;;;23.08;12.93;;;-3276.50;99.20;;;;;;5053683;28;20382;-81
2023/03/11 02:09:41;;;;;;;20.75;13.98;;;-3276.50;99.20;;;;;;5056156;28;20118;-80
2023/03/11 02:12:10;;;;;;;20.23;13.18;;;-3276.40;99.10;;;;;;5047963;28;20445;-81
2023/03/11 02:14:39;;;;;;;20.00;12.77;;;-3276.40;99.20;;;;;;5043135;28;20041;-81
2023/03/11 02:17:05;;;;;;;20.90;12.82;;;-3276.50;99.20;;;;;;5051297;28;20025;-81
2023/03/11 02:19:40;;;;;;;23.42;13.88;;;-3276.50;99.30;;;;;;5045906;28;20067;-78
2023/03/11 02:22:07;;;;;;;21.95;13.05;;;-3276.50;99.30;;;;;;5041300;28;20036;-78
2023/03/11 02:25:08;;;;;;;23.50;14.05;;;-3276.50;99.20;;;;;;5028641;28;20075;-80
2023/03/11 02:27:38;;;;;;;20.67;12.70;;;-3276.50;99.30;;;;;;5024708;28;20037;-78
2023/03/11 02:30:04;;;;;;;23.67;14.32;;;-3276.50;99.20;;;;;;5027359;28;20068;-78
2023/03/11 02:32:30;;;;;;;22.00;12.88;;;-3276.50;99.20;;;;;;5028833;28;20933;-78
2023/03/11 02:34:56;;;;;;;22.55;13.45;;;-3276.60;99.20;;;;;;5029384;28;20044;-78
2023/03/11 02:37:21;;;;;;;21.92;13.05;;;-3276.50;99.20;;;;;;5031871;28;21234;-77
2023/03/11 02:39:50;;;;;;;21.65;13.02;;;-3276.50;99.20;;;;;;5027142;28;20124;-79
2023/03/11 02:42:24;;;;;;;22.00;13.50;;;-3276.50;99.20;;;;;;5026439;28;20093;-81
2023/03/11 02:45:06;;;;;;;20.60;13.20;;;-3276.50;99.20;;;;;;5027462;28;20505;-80
2023/03/11 02:47:33;;;;;;;23.92;13.13;;;-3276.50;99.20;;;;;;5043678;28;20222;-77
2023/03/11 02:49:59;;;;;;;21.70;13.55;;;-3276.50;99.20;;;;;;5035114;28;20052;-82
2023/03/11 02:52:27;;;;;;;23.10;14.05;;;-3276.60;99.20;;;;;;5041476;28;20048;-81
2023/03/11 02:54:52;;;;;;;21.48;13.30;;;-3276.50;99.20;;;;;;5029714;28;20037;-80
2023/03/11 02:57:18;;;;;;;23.42;14.30;;;-3276.60;99.20;;;;;;5024344;28;20094;-78
2023/03/11 02:59:43;;;;;;;25.02;13.63;;;-3276.50;99.10;;;;;;5027034;28;20078;-78
2023/03/11 03:02:09;;;;;;;24.02;13.75;;;-3276.60;99.10;;;;;;5026682;28;20129;-79
2023/03/11 03:04:34;;;;;;;21.65;12.50;;;-3276.60;99.20;;;;;;5025886;28;20032;-79
2023/03/11 03:06:59;;;;;;;21.20;14.23;;;-3276.60;99.20;;;;;;5029994;28;20045;-81
2023/03/11 03:09:25;;;;;;;23.00;14.02;;;-3276.60;99.20;;;;;;5026695;28;20093;-79
2023/03/11 03:11:50;;;;;;;20.17;13.30;;;-3276.60;99.10;;;;;;5022932;28;20591;-79
2023/03/11 03:14:16;;;;;;;21.08;12.93;;;-3276.60;99.10;;;;;;5025775;28;20444;-80
2023/03/11 03:16:41;;;;;;;19.60;11.73;;;-3276.60;99.10;;;;;;5027963;28;20093;-80
2023/03/11 03:19:07;;;;;;;20.67;13.07;;;-3276.60;99.10;;;;;;5023982;28;20036;-80
2023/03/11 03:21:32;;;;;;;19.85;11.38;;;-3276.50;99.00;;;;;;5032518;28;20032;-80
2023/03/11 03:23:58;;;;;;;17.55;11.43;;;-3276.60;99.10;;;;;;5036578;28;20037;-81
2023/03/11 03:26:23;;;;;;;18.95;10.68;;;-3276.60;99.00;;;;;;5024870;28;20098;-80
2023/03/11 03:28:49;;;;;;;17.63;11.52;;;-3276.50;99.00;;;;;;5041834;28;20041;-80
2023/03/11 03:31:15;;;;;;;16.75;10.75;;;-3276.50;98.90;;;;;;5053420;28;20116;-81
2023/03/11 03:33:40;;;;;;;16.35;10.32;;;-3276.50;99.00;;;;;;5034401;28;20043;-79
2023/03/11 03:36:08;;;;;;;16.67;11.05;;;-3276.50;98.90;;;;;;5025707;28;20034;-79
2023/03/11 03:38:33;;;;;;;14.90;9.77;;;-3276.40;99.00;;;;;;5014168;28;20507;-78
2023/03/11 03:40:59;;;;;;;17.85;11.13;;;-3276.50;99.00;;;;;;5024843;28;20041;-80
2023/03/11 03:43:24;;;;;;;17.23;10.73;;;-3276.50;98.90;;;;;;5025625;28;20038;-77
2023/03/11 03:46:02;;;;;;;17.25;10.18;;;-3276.40;98.90;;;;;;5030337;28;20044;-80
2023/03/11 03:48:27;;;;;;;18.58;10.77;;;-3276.40;98.90;;;;;;5031148;28;20041;-80
2023/03/11 03:50:53;;;;;;;18.73;10.75;;;-3276.50;98.90;;;;;;5039399;28;20030;-80
2023/03/11 03:53:18;;;;;;;16.55;10.05;;;-3276.50;98.90;;;;;;5047901;28;20037;-80
2023/03/11 03:55:44;;;;;;;18.80;10.38;;;-3276.40;98.90;;;;;;5049271;28;21113;-81
2023/03/11 03:58:09;;;;;;;15.70;9.82;;;-3276.40;98.80;;;;;;5048872;28;20061;-81
2023/03/11 04:00:35;;;;;;;16.30;10.15;;;-3276.30;98.80;;;;;;5049469;28;20036;-80
2023/03/11 04:03:01;;;;;;;17.45;10.77;;;-3276.30;98.80;;;;;;5046065;28;20045;-80
2023/03/11 04:05:27;;;;;;;16.90;10.48;;;-3276.20;98.80;;;;;;5058545;28;20029;-80
2023/03/11 04:07:53;;;;;;;16.80;9.45;;;-3276.30;98.90;;;;;;5050319;28;20078;-81
2023/03/11 04:10:19;;;;;;;17.77;11.02;;;-3276.30;98.90;;;;;;5047548;28;20407;-80
2023/03/11 04:12:44;;;;;;;18.08;11.27;;;-3276.30;98.90;;;;;;5045110;28;20033;-81
2023/03/11 04:15:10;;;;;;;17.08;10.60;;;-3276.30;98.90;;;;;;5049998;28;20049;-79
2023/03/11 04:17:36;;;;;;;14.98;9.90;;;-3276.30;98.90;;;;;;5067330;28;20044;-80
2023/03/11 04:20:01;;;;;;;19.63;10.90;;;-3276.30;98.90;;;;;;5048677;28;20056;-80
2023/03/11 04:22:27;;;;;;;16.00;10.20;;;-3276.30;98.80;;;;;;5050363;28;20029;-81
2023/03/11 04:24:52;;;;;;;14.85;9.18;;;-3276.20;98.70;;;;;;5046979;28;20199;-80
2023/03/11 04:27:18;;;;;;;16.27;9.15;;;-3276.30;98.70;;;;;;5025390;28;20045;-79
2023/03/11 04:29:43;;;;;;;14.38;9.32;;;-3276.20;98.60;;;;;;5024971;28;20080;-79
2023/03/11 04:32:09;;;;;;;15.07;9.43;;;-3276.20;98.60;;;;;;5026692;28;20025;-79
2023/03/11 04:34:34;;;;;;;13.88;8.98;;;-3276.10;98.60;;;;;;5025534;28;20029;-78
2023/03/11 04:37:00;;;;;;;15.05;9.65;;;-3276.10;98.70;;;;;;5025960;28;20033;-79
2023/03/11 04:39:25;;;;;;;16.80;9.73;;;-3276.10;98.60;;;;;;5030880;28;20552;-80
2023/03/11 04:41:51;;;;;;;14.52;9.38;;;-3276.10;98.70;;;;;;5024728;28;20034;-80
2023/03/11 04:44:16;;;;;;;16.77;9.68;;;-3276.20;98.70;;;;;;5028489;28;20854;-81
2023/03/11 04:46:42;;;;;;;17.77;10.57;;;-3276.20;98.60;;;;;;5025013;28;20075;-77
2023/03/11 04:49:07;;;;;;;18.83;10.80;;;-3276.20;98.60;;;;;;5039352;28;20111;-80
2023/03/11 04:51:33;;;;;;;20.38;10.25;;;-3276.20;98.50;;;;;;5035479;28;20040;-80
2023/03/11 04:53:59;;;;;;;17.40;10.55;;;-3276.10;98.50;;;;;;5031934;28;20529;-80
2023/03/11 04:56:24;;;;;;;17.27;10.10;;;-3276.20;98.20;;;;;;5032013;28;20029;-79
2023/03/11 04:58:50;;;;;;;17.45;11.30;;;-3276.10;98.20;;;;;;5028668;28;20110;-78
2023/03/11 05:01:15;;;;;;;18.13;10.88;;;-3276.00;98.10;;;;;;5030100;28;20050;-78
2023/03/11 05:03:40;;;;;;;19.05;12.50;;;-3276.00;98.10;;;;;;5026423;28;20032;-81
2023/03/11 05:06:06;;;;;;;21.02;12.65;;;-3276.00;98.20;;;;;;5028140;28;20596;-81
2023/03/11 05:08:32;;;;;;;18.65;11.18;;;-3276.00;98.30;;;;;;5027560;28;20159;-78
2023/03/11 05:10:57;;;;;;;19.50;12.02;;;-3276.00;98.30;;;;;;5032063;28;20028;-83
2023/03/11 05:13:23;;;;;;;20.08;12.50;;;-3276.00;98.40;;;;;;5031199;28;20071;-79
2023/03/11 05:15:48;;;;;;;17.40;9.85;;;-3276.00;98.50;;;;;;5029267;28;20474;-80
2023/03/11 05:18:14;;;;;;;17.85;10.93;;;-3276.10;98.50;;;;;;5026255;28;20477;-77
2023/03/11 05:20:40;;;;;;;18.60;11.00;;;-3276.10;98.60;;;;;;5028944;28;20032;-81
2023/03/11 05:23:05;;;;;;;15.40;9.45;;;-3276.10;98.60;;;;;;5037168;28;20029;-79
2023/03/11 05:25:31;;;;;;;17.15;9.30;;;-3276.10;98.70;;;;;;5027799;28;20174;-80
2023/03/11 05:27:56;;;;;;;15.05;9.73;;;-3276.20;98.70;;;;;;5030571;28;20127;-80
2023/03/11 05:30:22;;;;;;;15.88;9.02;;;-3276.20;98.80;;;;;;5031279;28;20067;-81
2023/03/11 05:32:48;;;;;;;15.30;8.93;;;-3276.20;98.80;;;;;;5029278;28;20428;-81
2023/03/11 05:35:13;;;;;;;18.08;9.50;;;-3276.20;98.80;;;;;;5028583;28;20041;-79
2023/03/11 05:37:39;;;;;;;14.90;8.75;;;-3276.20;98.90;;;;;;5026944;28;20044;-82
2023/03/11 05:40:06;;;;;;;15.32;9.27;;;-3276.20;98.80;;;;;;5027511;28;20036;-82
2023/03/11 05:42:33;;;;;;;14.40;8.52;;;-3276.20;98.80;;;;;;5026086;28;20040;-78
2023/03/11 05:44:58;;;;;;;15.95;9.00;;;-3276.20;98.70;;;;;;5028850;28;20508;-82
2023/03/11 05:47:23;;;;;;;14.70;9.00;;;-3276.30;98.70;;;;;;5027938;28;20052;-84
2023/03/11 05:49:49;;;;;;;14.90;8.63;;;-3276.30;98.70;;;;;;5049237;28;20462;-81
2023/03/11 05:52:15;;;;;;;14.43;8.52;;;-3276.20;98.60;;;;;;5048313;28;20051;-84
2023/03/11 05:54:40;;;;;;;16.45;9.15;;;-3276.30;98.60;;;;;;5053678;28;20496;-83
2023/03/11 05:57:06;;;;;;;15.57;9.07;;;-3276.30;98.60;;;;;;5053705;28;20044;-85
2023/03/11 05:59:31;;;;;;;17.30;9.45;;;-3276.30;98.60;;;;;;5052515;28;20100;-84
2023/03/11 06:01:57;;;;;;;16.50;9.18;;;-3276.20;98.60;;;;;;5051125;28;20036;-85
2023/03/11 06:04:23;;;;;;;15.63;9.18;;;-3276.30;98.60;;;;;;5049897;28;20028;-85
2023/03/11 06:06:48;;;;;;;17.35;9.10;;;-3276.30;98.60;;;;;;5058211;28;20370;-84
2023/03/11 06:09:14;;;;;;;14.50;8.73;;;-3276.30;98.50;;;;;;5053795;28;20399;-84
2023/03/11 06:11:41;;;;;;;14.10;8.48;;;-3276.30;98.50;;;;;;5049413;28;20025;-85
2023/03/11 06:14:10;;;;;;;14.70;9.00;;;-3276.30;98.50;;;;;;5052239;28;20056;-86
2023/03/11 06:16:35;;;;;;;18.38;9.23;;;-3276.30;98.50;;;;;;5051765;28;20036;-85
2023/03/11 06:19:01;;;;;;;16.20;8.82;;;-3276.30;98.30;;;;;;5056207;28;20477;-85
2023/03/11 06:21:26;;;;;;;13.63;8.68;;;-3276.30;98.10;;;;;;5068933;28;20167;-80
2023/03/11 06:23:53;;;;;;;14.35;8.25;;;-3276.20;98.10;;;;;;5047131;28;20087;-80
2023/03/11 06:26:20;;;;;;;17.65;9.25;;;-3276.10;98.00;;;;;;5026489;28;20037;-83
2023/03/11 06:28:46;;;;;;;15.93;8.95;;;-3276.00;98.10;;;;;;5028890;28;20091;-83
2023/03/11 06:31:18;;;;;;;15.90;10.00;;;-3276.00;98.10;;;;;;5030754;28;20029;-79
2023/03/11 06:33:44;;;;;;;14.18;8.25;;;-3276.00;98.10;;;;;;5041620;28;20025;-79
2023/03/11 06:36:12;;;;;;;16.38;9.15;;;-3276.00;98.10;;;;;;5031323;28;20033;-78
2023/03/11 06:38:38;;;;;;;11.80;7.82;;;-3276.00;98.10;;;;;;5028387;28;20108;-79
2023/03/11 06:41:05;;;;;;;13.55;7.93;;;-3275.90;98.00;;;;;;5023491;28;20033;-80
2023/03/11 06:43:32;;;;;;;15.25;8.43;;;-3275.80;98.00;;;;;;5027421;28;20126;-79
2023/03/11 06:45:58;;;;;;;13.05;7.93;;;-3275.80;98.10;;;;;;5031939;28;20032;-77
2023/03/11 06:48:24;;;;;;;13.65;7.82;;;-3275.70;98.10;;;;;;5034351;28;20640;-81
2023/03/11 06:50:54;;;;;;;13.63;7.40;;;-3275.70;98.20;;;;;;5045640;28;21013;-79
2023/03/11 06:53:19;;;;;;;14.55;8.23;;;-3275.70;98.10;;;;;;5032584;28;20048;-82
2023/03/11 06:55:45;;;;;;;13.40;7.60;;;-3275.80;98.10;;;;;;5025107;28;20034;-76
2023/03/11 06:58:10;;;;;;;11.95;7.38;;;-3275.80;98.10;;;;;;5023395;28;20516;-78
2023/03/11 07:00:36;;;;;;;14.30;8.02;;;-3275.80;98.10;;;;;;5045541;28;20024;-81
2023/03/11 07:03:01;;;;;;;12.35;7.85;;;-3275.90;98.00;;;;;;5047338;28;20788;-82
2023/03/11 07:05:27;;;;;;;15.02;8.32;;;-3275.90;97.90;;;;;;5050154;28;20048;-81
2023/03/11 07:07:54;;;;;;;12.40;7.65;;;-3275.90;97.90;;;;;;5059406;28;20025;-80
2023/03/11 07:10:20;;;;;;;14.52;7.88;;;-3275.90;97.90;;;;;;5044108;28;20033;-80
2023/03/11 07:12:46;;;;;;;11.95;7.03;;;-3275.90;97.80;;;;;;5045895;28;20151;-82
2023/03/11 07:17:45;;;;;;;11.55;7.30;;;-3275.90;97.70;;;;;;5008250;28;20093;-84
2023/03/11 07:20:11;;;;;;;14.13;7.78;;;-3276.00;97.60;;;;;;5010691;28;20362;-82
2023/03/11 07:22:36;;;;;;;12.55;7.03;;;-3276.00;97.50;;;;;;5028272;28;20051;-82
2023/03/11 07:25:02;;;;;;;12.88;7.60;;;-3276.10;97.50;;;;;;5029910;28;20053;-84
2023/03/11 07:27:27;;;;;;;13.93;7.65;;;-3276.10;97.40;;;;;;5010384;28;20040;-83
2023/03/11 07:29:53;;;;;;;13.13;7.60;;;-3276.10;97.40;;;;;;5006988;28;20419;-82
2023/03/11 07:32:18;;;;;;;11.65;7.38;;;-3276.20;97.20;;;;;;5014258;28;20045;-84
2023/03/11 07:34:44;;;;;;;13.98;7.88;;;-3276.30;97.20;;;;;;5014800;28;21312;-82
2023/03/11 07:37:09;;;;;;;15.05;8.20;;;-3276.40;97.20;;;;;;4996598;28;20040;-84
2023/03/11 07:39:35;;;;;;;10.80;7.57;;;-3276.40;97.20;;;;;;5011225;28;20056;-84
2023/03/11 07:42:00;;;;;;;14.18;7.93;;;-3276.50;97.00;;;;;;4999686;28;20117;-84
2023/03/11 07:44:26;;;;;;;12.45;7.43;;;-3276.50;97.10;;;;;;5009195;28;20042;-84
2023/03/11 07:46:51;;;;;;;10.63;7.05;;;-3276.60;97.00;;;;;;5015469;28;20033;-83
2023/03/11 07:49:17;;;;;;;11.52;6.45;;;-3276.60;97.00;;;;;;5011932;28;20059;-84
2023/03/11 07:51:43;;;;;;;14.25;6.45;;;-3276.60;96.90;;;;;;5020838;28;20462;-83
2023/03/11 07:54:10;;;;;;;12.20;7.53;;;-3276.70;97.00;;;;;;5028445;28;20094;-84
2023/03/11 07:56:36;;;;;;;13.05;6.53;;;0.00;97.00;;;;;;5018174;28;20025;-84
2023/03/11 07:59:03;;;;;;;14.65;6.43;;;0.00;97.10;;;;;;5034406;28;20034;-83
2023/03/11 08:01:35;;;;;;;13.98;6.07;;;0.00;97.00;;;;;;5022717;28;20025;-84
2023/03/11 08:04:02;;;;;;;11.18;5.97;;;0.00;96.80;;;;;;5028518;28;20048;-82
2023/03/11 08:06:30;;;;;;;11.65;6.85;;;0.10;96.90;;;;;;5049766;28;20548;-83
2023/03/11 08:08:57;;;;;;;10.65;6.25;;;0.10;96.80;;;;;;5051143;28;20055;-83
2023/03/11 08:11:23;;;;;;;12.10;6.07;;;0.10;96.90;;;;;;5029903;28;20625;-83
2023/03/11 08:13:49;;;;;;;12.50;7.20;;;0.30;96.80;;;;;;5037059;28;20056;-84
2023/03/11 08:16:18;;;;;;;10.77;5.72;;;0.40;96.70;;;;;;5045234;28;20048;-83
2023/03/11 08:18:45;;;;;;;12.27;6.07;;;0.40;96.40;;;;;;5037773;28;20040;-83
2023/03/11 08:21:12;;;;;;;10.35;6.05;;;0.50;96.20;;;;;;5043489;28;20049;-86
2023/03/11 08:23:42;;;;;;;12.48;6.63;;;0.70;96.40;;;;;;5038361;28;20032;-88
2023/03/11 08:26:14;;;;;;;13.50;6.90;;;0.60;95.80;;;;;;5038566;28;20377;-87
2023/03/11 08:28:40;;;;;;;10.48;6.47;;;0.90;95.80;;;;;;5036264;28;20499;-86
2023/03/11 08:31:13;;;;;;;11.98;6.13;;;1.10;95.70;;;;;;5039057;28;20056;-87
2023/03/11 08:33:39;;;;;;;13.68;6.57;;;1.10;95.10;;;;;;5050112;28;20461;-85
2023/03/11 08:36:04;;;;;;;10.73;6.30;;;1.20;94.60;;;;;;5047692;28;20049;-86
2023/03/11 08:38:30;;;;;;;13.30;6.30;;;1.30;94.40;;;;;;5027011;28;20030;-86
2023/03/11 08:40:55;;;;;;;12.52;6.47;;;1.40;93.70;;;;;;5016350;28;20037;-85
2023/03/11 08:43:21;;;;;;;11.82;6.65;;;1.60;93.50;;;;;;5036934;28;20024;-86
2023/03/11 08:45:46;;;;;;;13.13;6.10;;;1.50;92.90;;;;;;5038494;28;20488;-85
2023/03/11 08:48:12;;;;;;;10.82;5.15;;;1.30;92.30;;;;;;5055216;28;20036;-84
2023/03/11 08:50:42;;;;;;;10.32;6.15;;;1.70;93.00;;;;;;5047462;28;20033;-85
2023/03/11 08:53:08;;;;;;;14.93;6.05;;;1.70;92.30;;;;;;5037542;28;20499;-85
2023/03/11 08:55:33;;;;;;;12.85;6.38;;;1.70;91.60;;;;;;5051144;28;20086;-85
2023/03/11 08:57:59;;;;;;;8.95;5.07;;;1.70;91.70;;;;;;5052224;28;20037;-84
2023/03/11 09:00:25;;;;;;;10.50;5.45;;;1.80;91.80;;;;;;5050609;28;20028;-87
2023/03/11 09:02:50;;;;;;;9.73;5.18;;;2.00;91.60;;;;;;5039645;28;20096;-87
2023/03/11 09:05:16;;;;;;;11.02;5.22;;;1.90;90.60;;;;;;5037892;28;20074;-85
2023/03/11 09:07:42;;;;;;;7.60;4.40;;;1.80;90.40;;;;;;5056485;28;20009;-85
2023/03/11 09:10:08;;;;;;;8.52;4.18;;;1.70;90.00;;;;;;5038252;28;20021;-86
2023/03/11 09:12:33;;;;;;;8.15;4.53;;;1.80;90.30;;;;;;5045026;28;20069;-87
2023/03/11 09:14:59;;;;;;;9.43;4.68;;;2.00;90.00;;;;;;5037221;28;20400;-87
2023/03/11 09:17:24;;;;;;;10.40;4.13;;;2.10;89.80;;;;;;5048411;28;20072;-87
2023/03/11 09:19:50;;;;;;;8.93;4.63;;;2.10;88.70;;;;;;5053903;28;20044;-87
2023/03/11 09:22:15;;;;;;;10.27;4.72;;;2.40;90.40;;;;;;5053284;28;20044;-86
2023/03/11 09:24:41;;;;;;;8.57;4.65;;;2.60;89.50;;;;;;5042389;28;20061;-86
2023/03/11 09:27:06;;;;;;;10.35;4.88;;;2.60;88.50;;;;;;5026369;28;20031;-86
2023/03/11 09:29:32;;;;;;;8.48;5.03;;;2.70;87.40;;;;;;5050915;28;20378;-85
2023/03/11 09:31:58;;;;;;;9.57;5.57;;;3.10;89.00;;;;;;5040592;28;20113;-86
2023/03/11 09:34:23;;;;;;;10.65;4.78;;;2.90;88.60;;;;;;5035297;28;20028;-86
2023/03/11 09:36:49;;;;;;;10.93;5.40;;;2.90;88.60;;;;;;5060511;28;20374;-86
2023/03/11 09:39:14;;;;;;;8.52;5.47;;;3.10;89.30;;;;;;5030989;28;20132;-86
2023/03/11 09:41:46;;;;;;;10.60;5.70;;;3.10;89.60;;;;;;5031757;28;20033;-86
2023/03/11 09:44:40;;;;;;;8.27;4.80;;;3.00;88.40;;;;;;5028301;28;20072;-86
2023/03/11 09:47:05;;;;;;;9.82;5.15;;;3.10;87.70;;;;;;5054511;28;20472;-85
2023/03/11 09:49:47;;;;;;;9.48;5.38;;;2.90;87.40;;;;;;5035215;28;20035;-85
2023/03/11 09:52:16;;;;;;;13.73;5.00;;;3.10;87.90;;;;;;5050633;28;20449;-85
2023/03/11 09:54:47;;;;;;;10.43;5.07;;;3.10;87.10;;;;;;5033867;28;20029;-86
2023/03/11 09:57:21;;;;;;;10.23;5.35;;;3.30;87.80;;;;;;5049697;28;20056;-86
2023/03/11 09:59:47;;;;;;;8.38;5.25;;;3.30;87.40;;;;;;5028594;28;20032;-86
2023/03/11 10:02:22;;;;;;;11.45;4.18;;;3.40;87.00;;;;;;5034681;28;20064;-86
2023/03/11 10:04:58;;;;;;;8.68;5.10;;;3.30;87.20;;;;;;5051084;28;20025;-86
2023/03/11 10:07:36;;;;;;;10.60;4.70;;;3.10;86.60;;;;;;5051614;28;20033;-85
2023/03/11 10:10:05;;;;;;;11.35;4.45;;;3.20;86.30;;;;;;5029451;28;20033;-84
2023/03/11 10:12:30;;;;;;;10.00;4.43;;;3.40;85.80;;;;;;5022661;28;20028;-84
2023/03/11 10:15:15;;;;;;;9.32;4.35;;;3.60;86.10;;;;;;5041779;28;20044;-84
2023/03/11 10:17:58;;;;;;;10.13;4.70;;;3.70;85.00;;;;;;5042361;28;20781;-84
2023/03/11 10:20:26;;;;;;;8.52;4.22;;;3.60;85.30;;;;;;5033054;28;20029;-84
2023/03/11 10:23:01;;;;;;;9.38;4.32;;;3.90;84.90;;;;;;5033783;28;20086;-84
2023/03/11 10:25:57;;;;;;;8.00;4.18;;;3.80;84.50;;;;;;5053752;28;20419;-84
2023/03/11 10:28:38;;;;;;;10.40;5.03;;;4.10;85.30;;;;;;5047438;28;20021;-84
2023/03/11 10:31:35;;;;;;;9.18;4.35;;;4.20;83.00;;;;;;5045951;28;20036;-84
2023/03/11 10:34:09;;;;;;;7.70;3.90;;;4.60;82.80;;;;;;5050254;28;20108;-84
2023/03/11 10:36:41;;;;;;;10.27;3.72;;;4.70;81.10;;;;;;5034437;28;20033;-84
2023/03/11 10:39:09;;;;;;;9.35;4.18;;;4.70;81.80;;;;;;5048096;28;21144;-84
2023/03/11 10:41:40;;;;;;;7.82;3.30;;;5.10;81.30;;;;;;5030532;28;20039;-84
2023/03/11 10:44:14;;;;;;;6.88;3.55;;;4.90;80.30;;;;;;5029546;28;20018;-85
2023/03/11 10:46:39;;;;;;;10.07;3.67;;;5.00;79.30;;;;;;5035337;28;20063;-85
2023/03/11 10:49:15;;;;;;;11.45;3.75;;;4.90;80.20;;;;;;5047755;28;20064;-86
2023/03/11 10:51:44;;;;;;;7.75;3.38;;;5.10;80.10;;;;;;5031643;28;20025;-86
2023/03/11 10:54:28;;;;;;;8.25;3.60;;;4.90;78.50;;;;;;5034893;28;20503;-85
2023/03/11 10:57:00;;;;;;;5.78;2.90;;;5.30;78.60;;;;;;5048335;28;20036;-86
2023/03/11 10:59:44;;;;;;;7.85;3.40;;;5.30;77.70;;;;;;5035038;28;20119;-86
2023/03/11 11:02:24;;;;;;;6.97;2.85;;;5.30;78.70;;;;;;5033691;28;20025;-85
2023/03/11 11:05:17;;;;;;;7.57;2.40;;;5.60;78.70;;;;;;5043296;28;20082;-85
2023/03/11 11:07:44;;;;;;;4.85;2.15;;;5.30;76.60;;;;;;5052668;28;20028;-85
2023/03/11 11:10:19;;;;;;;6.20;2.33;;;5.50;76.50;;;;;;5038007;28;20017;-85
2023/03/11 11:12:58;;;;;;;6.88;2.78;;;5.40;76.20;;;;;;5044189;28;20037;-86
2023/03/11 11:15:36;;;;;;;5.75;2.33;;;5.90;76.50;;;;;;5042542;28;20048;-85
2023/03/11 11:18:26;;;;;;;6.10;2.92;;;5.90;75.80;;;;;;5021271;28;20565;-83
2023/03/11 11:20:57;;;;;;;7.93;2.40;;;5.80;75.70;;;;;;5027282;28;20045;-83
2023/03/11 11:23:40;;;;;;;7.88;2.53;;;5.80;74.80;;;;;;5038118;28;20039;-83
2023/03/11 11:26:16;;;;;;;6.28;1.90;;;6.00;75.50;;;;;;5049429;28;20038;-84
2023/03/11 11:28:41;;;;;;;4.32;1.90;;;5.90;74.80;;;;;;5048030;28;20504;-83
2023/03/11 11:31:23;;;;;;;4.65;1.70;;;5.80;73.40;;;;;;5044490;28;20017;-83
2023/03/11 11:33:54;;;;;;;4.20;1.60;;;6.20;73.90;;;;;;5049996;28;20036;-83
2023/03/11 11:36:23;;;;;;;;;;;6.10;71.80;;;;;;5047052;28;20036;-83
2023/03/11 11:38:51;;;;;;;4.78;2.00;;;6.40;74.90;;;;;;5030073;28;19909;-83
2023/03/11 11:41:21;;;;;;;4.18;1.60;;;6.40;72.10;;;;;;5029154;28;20048;-83
2023/03/11 11:43:56;;;;;;;6.88;1.90;;;6.10;72.60;;;;;;5035971;28;20112;-83
2023/03/11 11:46:25;;;;;;;5.32;1.27;;;6.40;72.90;;;;;;5026196;28;20452;-83
2023/03/11 11:49:15;;;;;;;4.00;1.23;;;6.30;71.80;;;;;;5028825;28;20040;-83
2023/03/11 11:51:49;;;;;;;6.15;1.88;;;6.30;71.80;;;;;;5046847;28;20107;-83
2023/03/11 11:54:41;;;;;;;5.75;1.20;;;6.10;72.30;;;;;;5031147;28;20120;-83
2023/03/11 11:57:13;;;;;;;7.25;1.40;;;6.50;71.60;;;;;;5052407;28;20078;-83
2023/03/11 11:59:39;;;;;;;7.43;1.77;;;6.30;71.80;;;;;;5055720;28;20033;-83
2023/03/11 12:02:41;;;;;;;5.22;1.70;;;6.40;71.30;;;;;;5055710;28;20029;-83
2023/03/11 12:05:19;;;;;;;7.13;1.83;;;6.70;71.20;;;;;;5041650;28;20052;-82
2023/03/11 12:08:03;;;;;;;7.40;1.60;;;6.20;71.60;;;;;;5028493;28;20090;-83
2023/03/11 12:10:46;;;;;;;4.80;1.55;;;7.10;71.00;;;;;;5048666;28;20063;-83
2023/03/11 12:13:20;;;;;;;5.57;2.10;;;7.00;69.90;;;;;;5046564;28;20036;-83
2023/03/11 12:16:04;;;;;;;6.00;1.67;;;6.60;70.10;;;;;;5052546;28;20061;-82
2023/03/11 12:18:39;;;;;;;9.20;1.48;;;6.60;69.10;;;;;;5013295;28;20388;-82
2023/03/11 12:21:26;;;;;;;6.72;1.35;;;6.60;71.30;;;;;;5021958;28;20039;-83
2023/03/11 12:24:09;;;;;;;4.78;1.30;;;7.00;68.00;;;;;;5036850;28;20029;-82
2023/03/11 12:26:38;;;;;;;8.70;1.60;;;6.30;70.60;;;;;;5009924;28;20033;-83
2023/03/11 12:29:21;;;;;;;3.10;1.45;;;6.60;69.60;;;;;;5032210;28;20033;-83
2023/03/11 12:31:47;;;;;;;7.13;1.52;;;6.80;69.40;;;;;;5014276;28;20391;-83
2023/03/11 12:34:18;;;;;;;8.10;1.70;;;7.10;68.80;;;;;;5049813;28;20078;-83